Latest Coastal Weather Observations for Portland Harbour

IDV60701

Issued at 7:41 am EDT Thursday 14 November 2019 (issued every 10 minutes, with the page automatically refreshed every 10 minutes)

About coastal observations | Map of coastal stations | Coastal observations for VIC | Marine services | Other Formats
Station Details ID: 090192 Name: PORTLAND NTC AWS Lat: -38.34 Lon: 141.61 Height: 0.0 m
Data from the previous 72 hours. | See also: Recent months for locations in Victoria
Date/Time
EDT
Wind Sea
Height
m
Swell Vis
km
Cloud Weather Temp
°C
Press
hPa
Rain since
9am
mm
Dir  Spd
kts
Gust
kts
Height
m
Period
s
Dir
14/07:30am W 10 16 - - - - - - - 12.7 1014.9 -
14/07:00am W 11 16 - - - - - - - 12.3 1015.1 -
14/06:30am W 9 14 - - - - - - - 12.2 1015.0 -
14/06:00am W 9 14 - - - - - - - 11.9 1014.9 -
14/05:30am W 10 15 - - - - - - - 11.6 1014.8 -
14/05:00am W 12 18 - - - - - - - 11.8 1014.9 -
14/04:30am W 12 17 - - - - - - - 11.9 1015.0 -
14/04:00am WSW 12 18 - - - - - - - 12.0 1015.2 -
14/03:30am WSW 13 19 - - - - - - - 12.0 1015.4 -
14/03:00am WSW 13 17 - - - - - - - 12.2 1015.5 -
14/02:30am WSW 13 19 - - - - - - - 12.1 1015.5 -
14/02:00am WSW 13 19 - - - - - - - 12.1 1015.9 -
14/01:30am WSW 13 20 - - - - - - - 12.6 1016.0 -
14/01:00am W 13 20 - - - - - - - 12.5 1016.0 -
14/12:30am WSW 13 19 - - - - - - - 12.2 1016.5 -
14/12:00am WSW 11 16 - - - - - - - 12.6 1016.7 -
 
Date/Time
EDT
Wind Sea
Height
m
Swell Vis
km
Cloud Weather Temp
°C
Press
hPa
Rain since
9am
mm
Dir  Spd
kts
Gust
kts
Height
m
Period
s
Dir
13/11:30pm WSW 15 22 - - - - - - - 12.6 1016.9 -
13/11:00pm WSW 15 21 - - - - - - - 12.5 1017.0 -
13/10:30pm WSW 15 21 - - - - - - - 12.3 1017.2 -
13/10:00pm WSW 11 16 - - - - - - - 12.6 1017.2 -
13/09:30pm WSW 12 21 - - - - - - - 12.6 1017.1 -
13/09:00pm W 12 20 - - - - - - - 12.9 1017.1 -
13/08:30pm W 13 20 - - - - - - - 13.4 1017.1 -
13/08:00pm WSW 13 20 - - - - - - - 13.6 1017.1 -
13/07:30pm W 13 20 - - - - - - - 13.8 1016.8 -
13/07:00pm W 17 26 - - - - - - - 14.2 1016.8 -
13/06:53pm WSW 15 26 - - - - - - - 14.0 1016.7 -
13/06:30pm WSW 17 26 - - - - - - - 14.1 1016.8 -
13/06:00pm WSW 19 27 - - - - - - - 14.1 1016.7 -
13/05:33pm WSW 18 28 - - - - - - - 14.1 1016.6 -
13/05:30pm WSW 19 28 - - - - - - - 14.3 1016.5 -
13/05:10pm WSW 17 27 - - - - - - - 14.2 1016.5 -
13/05:00pm WSW 16 23 - - - - - - - 14.2 1016.3 -
13/04:47pm WSW 16 26 - - - - - - - 14.2 1016.1 -
13/04:30pm W 16 24 - - - - - - - 14.0 1016.0 -
13/04:00pm WSW 17 23 - - - - - - - 13.5 1016.1 -
13/03:30pm WSW 15 25 - - - - - - - 13.5 1016.4 -
13/03:00pm WSW 16 30 - - - - - - - 13.3 1016.8 -
13/02:44pm W 16 29 - - - - - - - 13.5 1016.6 -
13/02:30pm W 14 22 - - - - - - - 13.4 1016.6 -
13/02:00pm W 18 25 - - - - - - - 13.8 1016.6 -
13/01:40pm W 16 27 - - - - - - - 13.6 1016.5 -
13/01:30pm W 18 26 - - - - - - - 13.8 1016.3 -
13/01:00pm W 18 28 - - - - - - - 13.7 1016.6 -
13/12:59pm W 18 28 - - - - - - - 13.5 1016.6 -
13/12:30pm W 16 23 - - - - - - - 13.2 1016.4 -
13/12:13pm W 15 27 - - - - - - - 12.9 1016.7 -
13/12:00pm W 15 23 - - - - - - - 12.9 1016.7 -
13/11:39am W 16 26 - - - - - - - 13.5 1016.9 -
13/11:30am W 17 24 - - - - - - - 13.7 1016.9 -
13/11:01am W 16 26 - - - - - - - 13.7 1016.9 -
13/11:00am W 17 26 - - - - - - - 13.6 1016.9 -
13/10:39am W 17 27 - - - - - - - 13.4 1016.7 -
13/10:30am W 16 24 - - - - - - - 13.2 1016.8 -
13/10:00am WNW 14 18 - - - - - - - 12.2 1016.9 -
13/09:40am W 15 25 - - - - - - - 11.9 1017.0 -
13/09:30am W 16 23 - - - - - - - 12.3 1017.1 -
13/09:00am WSW 14 21 - - - - - - - 12.6 1016.9 -
13/08:30am WSW 13 20 - - - - - - - 12.7 1016.7 -
13/08:00am WSW 15 21 - - - - - - - 12.5 1016.4 -
13/07:30am WSW 14 22 - - - - - - - 12.3 1016.6 -
13/07:00am WSW 12 18 - - - - - - - 12.0 1016.2 -
13/06:30am WSW 13 20 - - - - - - - 11.8 1016.1 -
13/06:00am WSW 13 19 - - - - - - - 11.6 1016.0 -
13/05:30am WSW 12 19 - - - - - - - 11.6 1015.8 -
13/05:00am SW 12 18 - - - - - - - 11.2 1015.5 -
13/04:44am WSW 15 24 - - - - - - - 11.2 1015.5 -
13/04:30am WSW 9 14 - - - - - - - 11.6 1015.4 -
13/04:00am WSW 13 19 - - - - - - - 11.7 1015.5 -
13/03:30am SW 13 18 - - - - - - - 11.5 1015.7 -
13/03:00am WSW 12 19 - - - - - - - 11.9 1015.9 -
13/02:30am WSW 13 20 - - - - - - - 11.7 1016.4 -
13/02:00am WSW 15 20 - - - - - - - 11.6 1016.7 -
13/01:43am WSW 15 25 - - - - - - - 11.8 1016.8 -
13/01:30am WSW 14 23 - - - - - - - 11.6 1016.8 -
13/01:00am WSW 13 21 - - - - - - - 11.4 1017.4 -
13/12:40am WSW 16 27 - - - - - - - 11.9 1017.1 -
13/12:30am WSW 17 25 - - - - - - - 12.0 1017.1 -
13/12:00am WSW 15 22 - - - - - - - 11.8 1017.0 -
 
Date/Time
EDT
Wind Sea
Height
m
Swell Vis
km
Cloud Weather Temp
°C
Press
hPa
Rain since
9am
mm
Dir  Spd
kts
Gust
kts
Height
m
Period
s
Dir
12/11:30pm SW 17 28 - - - - - - - 12.0 1017.1 -
12/11:27pm WSW 16 28 - - - - - - - 12.0 1017.0 -
12/11:00pm SW 16 24 - - - - - - - 11.6 1016.9 -
12/10:30pm WSW 16 25 - - - - - - - 11.9 1016.7 -
12/10:11pm SW 15 27 - - - - - - - 11.8 1016.7 -
12/10:00pm SW 15 25 - - - - - - - 11.2 1016.7 -
12/09:30pm SW 16 23 - - - - - - - 11.5 1016.3 -
12/09:15pm SW 18 29 - - - - - - - 11.4 1016.2 -
12/09:00pm SW 15 21 - - - - - - - 11.0 1016.2 -
12/08:30pm WSW 16 24 - - - - - - - 11.3 1015.8 -
12/08:00pm SW 16 25 - - - - - - - 11.2 1015.4 -
12/07:30pm WSW 18 25 - - - - - - - 11.4 1014.9 -
12/07:00pm WSW 19 30 - - - - - - - 12.0 1014.4 -
12/06:30pm SW 22 33 - - - - - - - 12.1 1014.1 -
12/06:00pm SW 23 38 - - - - - - - 11.4 1014.2 -
12/05:31pm SW 24 35 - - - - - - - 11.9 1013.6 -
12/05:30pm SW 25 35 - - - - - - - 12.0 1013.6 -
12/05:00pm WSW 22 34 - - - - - - - 11.9 1013.1 -
12/04:30pm WSW 24 35 - - - - - - - 12.1 1012.7 -
12/04:00pm WSW 22 33 - - - - - - - 11.9 1012.5 -
12/03:30pm WSW 22 35 - - - - - - - 10.7 1012.5 -
12/03:02pm WSW 23 33 - - - - - - - 12.9 1011.9 -
12/03:00pm WSW 24 34 - - - - - - - 12.7 1012.0 -
12/02:30pm SW 23 37 - - - - - - - 11.3 1012.2 -
12/02:01pm WSW 26 35 - - - - - - - 11.7 1012.1 -
12/02:00pm WSW 25 35 - - - - - - - 12.2 1012.0 -
12/01:36pm WSW 17 29 - - - - - - - 12.2 1011.6 -
12/01:30pm WSW 17 26 - - - - - - - 11.5 1011.7 -
12/01:10pm WSW 18 28 - - - - - - - 11.9 1011.6 -
12/01:00pm WSW 21 28 - - - - - - - 11.3 1011.8 -
12/12:30pm WSW 23 33 - - - - - - - 13.1 1011.2 -
12/12:00pm WSW 21 31 - - - - - - - 13.1 1011.1 -
12/11:33am WSW 22 33 - - - - - - - 13.1 1010.9 -
12/11:30am WSW 22 31 - - - - - - - 13.2 1011.0 -
12/11:08am WSW 23 34 - - - - - - - 12.8 1010.9 -
12/11:00am WSW 23 33 - - - - - - - 12.7 1010.7 -
12/10:32am WSW 19 33 - - - - - - - 12.9 1010.7 -
12/10:30am WSW 19 28 - - - - - - - 13.2 1010.4 -
12/10:00am WSW 22 33 - - - - - - - 12.4 1010.4 -
12/09:30am WSW 18 27 - - - - - - - 12.1 1010.4 -
12/09:01am WSW 15 27 - - - - - - - 12.0 1010.1 -
12/09:00am WSW 14 27 - - - - - - - 11.8 1010.2 -
12/08:30am SW 20 37 - - - - - - - 10.1 1010.0 -
12/08:25am WSW 19 37 - - - - - - - 11.9 1009.8 -
12/08:18am WSW 15 26 - - - - - - - 12.2 1009.5 -
12/08:00am WSW 14 21 - - - - - - - 12.0 1009.1 -
12/07:30am SW 15 25 - - - - - - - 11.8 1008.9 -
12/07:07am WSW 17 29 - - - - - - - 11.2 1008.8 -
12/07:00am WSW 15 24 - - - - - - - 11.4 1008.4 -
12/06:30am SW 14 23 - - - - - - - 11.7 1008.1 -
12/06:00am SW 19 26 - - - - - - - 11.9 1007.7 -
12/05:30am SW 15 21 - - - - - - - 12.0 1007.2 -
12/05:00am SW 12 19 - - - - - - - 11.7 1007.0 -
12/04:30am SW 18 26 - - - - - - - 11.6 1006.9 -
12/04:00am SW 12 17 - - - - - - - 12.3 1006.6 -
12/03:30am SW 11 16 - - - - - - - 12.4 1006.6 -
12/03:00am SW 11 15 - - - - - - - 12.2 1006.2 -
12/02:30am SW 10 16 - - - - - - - 12.2 1006.1 -
12/02:00am SW 12 18 - - - - - - - 12.4 1006.0 -
12/01:30am SW 13 18 - - - - - - - 12.4 1005.9 -
12/01:00am SSW 16 25 - - - - - - - 12.6 1005.7 -
12/12:30am SW 12 17 - - - - - - - 12.7 1005.1 -
12/12:00am SSW 14 20 - - - - - - - 12.5 1004.6 -
 
Date/Time
EDT
Wind Sea
Height
m
Swell Vis
km
Cloud Weather Temp
°C
Press
hPa
Rain since
9am
mm
Dir  Spd
kts
Gust
kts
Height
m
Period
s
Dir
11/11:30pm SSW 17 24 - - - - - - - 12.9 1003.8 -
11/11:00pm SSW 13 17 - - - - - - - 14.0 1003.2 -
11/10:30pm SSW 6 9 - - - - - - - 14.4 1002.3 -
11/10:00pm SW 8 13 - - - - - - - 14.5 1002.1 -
11/09:30pm SSW 9 17 - - - - - - - 15.0 1002.5 -
11/09:00pm SW 14 20 - - - - - - - 15.9 1002.3 -
11/08:30pm WSW 14 22 - - - - - - - 17.9 1002.2 -
11/08:00pm W 12 17 - - - - - - - 19.6 1001.4 -
11/07:42pm WSW 15 23 - - - - - - - 20.4 1001.3 -
11/07:30pm W 7 11 - - - - - - - 21.7 1000.7 -
11/07:00pm W 10 17 - - - - - - - 24.0 1001.0 -
11/06:30pm NW 7 10 - - - - - - - 25.9 1000.7 -
11/06:00pm NW 13 23 - - - - - - - 26.2 1001.1 -
11/05:30pm NW 13 21 - - - - - - - 26.0 1001.6 -
11/05:06pm NNW 17 28 - - - - - - - 26.3 1002.4 -
11/05:00pm NNW 17 23 - - - - - - - 25.9 1002.5 -
11/04:30pm NNW 15 23 - - - - - - - 25.5 1002.4 -
11/04:00pm WNW 11 20 - - - - - - - 26.2 1003.3 -
11/03:30pm NW 15 23 - - - - - - - 26.8 1003.9 -
11/03:00pm NNW 14 23 - - - - - - - 26.1 1004.1 -
11/02:30pm NW 14 22 - - - - - - - 25.4 1004.9 -
11/02:00pm NNW 13 21 - - - - - - - 25.0 1005.1 -
11/01:30pm NNW 15 21 - - - - - - - 24.6 1005.5 -
11/01:00pm NW 15 24 - - - - - - - 24.6 1006.0 -
11/12:30pm NW 16 26 - - - - - - - 24.1 1006.4 -
11/12:25pm NW 15 26 - - - - - - - 24.1 1006.5 -
11/12:00pm NNW 14 20 - - - - - - - 23.6 1006.8 -
11/11:30am NNW 17 24 - - - - - - - 21.4 1007.0 -
11/11:00am NNW 13 17 - - - - - - - 20.5 1007.8 -
11/10:30am NNW 15 21 - - - - - - - 19.7 1008.1 -
11/10:00am NNW 15 22 - - - - - - - 18.3 1008.1 -
11/09:30am NNW 12 16 - - - - - - - 15.6 1008.8 -
11/09:00am N 13 15 - - - - - - - 13.6 1008.8 -
11/08:30am N 10 13 - - - - - - - 12.6 1009.8 -
11/08:00am N 11 15 - - - - - - - 11.9 1010.1 -

Other formats

Comma delimited format used in spreadsheet applications
http://www.bom.gov.au/fwo/IDV60701/IDV60701.95826.axf

JavaScript Object Notation format (JSON) in row-major order
http://www.bom.gov.au/fwo/IDV60701/IDV60701.95826.json

Data quality

Most of these data are generated automatically and are frequently updated. Quality checks on data are not normally performed. It is possible for incorrect values to appear. Refer to information at About Latest Weather Observations and please check the disclaimer before using these data.